createdAt,value
2017-04-07T00:00:08.367Z,23.29
2017-04-07T00:00:27.671Z,23.33
2017-04-07T00:00:46.430Z,23.38
2017-04-07T00:01:05.708Z,23.33
2017-04-07T00:01:24.956Z,23.31
2017-04-07T00:01:43.740Z,23.31
2017-04-07T00:02:03.028Z,23.4
2017-04-07T00:02:22.429Z,23.33
2017-04-07T00:02:41.739Z,23.35
2017-04-07T00:03:01.030Z,23.33
2017-04-07T00:03:20.340Z,23.33
2017-04-07T00:03:39.123Z,23.31
2017-04-07T00:03:58.402Z,23.33
2017-04-07T00:04:17.171Z,23.37
2017-04-07T00:04:36.461Z,23.31
2017-04-07T00:04:55.734Z,23.33
2017-04-07T00:05:14.997Z,23.34
2017-04-07T00:05:34.262Z,23.38
2017-04-07T00:05:53.567Z,23.42
2017-04-07T00:06:12.338Z,23.38
2017-04-07T00:06:31.574Z,23.38
2017-04-07T00:06:50.849Z,23.37
2017-04-07T00:07:09.625Z,23.37
2017-04-07T00:07:28.377Z,23.4
2017-04-07T00:07:47.621Z,23.38
2017-04-07T00:08:06.936Z,23.42
2017-04-07T00:08:26.203Z,23.38
2017-04-07T00:08:45.476Z,23.37
2017-04-07T00:09:04.781Z,23.42
2017-04-07T00:09:24.091Z,23.38
2017-04-07T00:09:43.413Z,23.43
2017-04-07T00:10:02.743Z,23.48
2017-04-07T00:10:22.063Z,23.37
2017-04-07T00:10:41.361Z,23.43
2017-04-07T00:11:00.656Z,23.4
2017-04-07T00:11:19.960Z,23.38
2017-04-07T00:11:39.254Z,23.42
2017-04-07T00:11:58.530Z,23.43
2017-04-07T00:12:17.302Z,23.38
2017-04-07T00:12:36.580Z,23.43
2017-04-07T00:12:55.826Z,23.4
2017-04-07T00:13:14.582Z,23.42
2017-04-07T00:13:33.843Z,23.4
2017-04-07T00:13:53.112Z,23.37
2017-04-07T00:14:12.422Z,23.35
2017-04-07T00:14:31.688Z,23.45
2017-04-07T00:14:51.007Z,23.43
2017-04-07T00:15:10.300Z,23.42
2017-04-07T00:15:28.551Z,23.45
2017-04-07T00:15:47.846Z,23.42
2017-04-07T00:16:07.187Z,23.43
2017-04-07T00:16:26.682Z,23.46
2017-04-07T00:16:45.950Z,23.4
2017-04-07T00:17:05.265Z,23.43
2017-04-07T00:17:24.548Z,23.4
2017-04-07T00:17:43.837Z,23.34
2017-04-07T00:18:03.120Z,23.42
2017-04-07T00:18:21.849Z,23.35
2017-04-07T00:18:41.134Z,23.35
2017-04-07T00:19:00.436Z,23.34
2017-04-07T00:19:19.734Z,23.37
2017-04-07T00:19:38.515Z,23.29
2017-04-07T00:19:57.811Z,23.35
2017-04-07T00:20:17.103Z,23.29
2017-04-07T00:20:36.376Z,23.29
2017-04-07T00:20:55.180Z,23.31
2017-04-07T00:21:14.469Z,23.31
2017-04-07T00:21:33.871Z,23.31
2017-04-07T00:21:53.150Z,23.31
2017-04-07T00:22:12.447Z,23.33
2017-04-07T00:22:31.780Z,23.29
2017-04-07T00:22:51.068Z,23.33
2017-04-07T00:23:10.396Z,23.31
2017-04-07T00:23:29.686Z,23.34
2017-04-07T00:23:49.006Z,23.29
2017-04-07T00:24:08.294Z,23.23
2017-04-07T00:24:27.588Z,23.31
2017-04-07T00:24:46.853Z,23.34
2017-04-07T00:25:06.159Z,23.38
2017-04-07T00:25:25.439Z,23.31
2017-04-07T00:25:44.742Z,23.4
2017-04-07T00:26:04.023Z,23.37
2017-04-07T00:26:23.334Z,23.37
2017-04-07T00:26:42.118Z,23.33
2017-04-07T00:27:01.395Z,23.37
2017-04-07T00:27:20.682Z,23.42
2017-04-07T00:27:39.946Z,23.38
2017-04-07T00:27:59.265Z,23.37
2017-04-07T00:28:18.584Z,23.38
2017-04-07T00:28:37.850Z,23.46
2017-04-07T00:28:57.159Z,23.4
2017-04-07T00:29:16.456Z,23.38
2017-04-07T00:29:35.819Z,23.37
2017-04-07T00:29:55.095Z,23.45
2017-04-07T00:30:14.393Z,23.43
2017-04-07T00:30:33.731Z,23.35
2017-04-07T00:30:53.041Z,23.4
2017-04-07T00:31:12.347Z,23.4
2017-04-07T00:31:31.621Z,23.37
2017-04-07T00:31:50.906Z,23.37
2017-04-07T00:32:10.227Z,23.33
2017-04-07T00:32:29.536Z,23.33
2017-04-07T00:32:48.825Z,23.38
2017-04-07T00:33:08.118Z,23.33
2017-04-07T00:33:27.395Z,23.38
2017-04-07T00:33:46.631Z,23.33
2017-04-07T00:34:05.899Z,23.31
2017-04-07T00:34:25.184Z,23.27
2017-04-07T00:34:44.464Z,23.38
2017-04-07T00:35:03.763Z,23.29
2017-04-07T00:35:23.050Z,23.4
2017-04-07T00:35:42.370Z,23.31
2017-04-07T00:36:01.658Z,23.38
2017-04-07T00:36:20.898Z,23.46
2017-04-07T00:36:40.223Z,23.45
2017-04-07T00:36:59.524Z,23.37
2017-04-07T00:37:18.817Z,23.43
2017-04-07T00:37:38.139Z,23.45
2017-04-07T00:37:57.454Z,23.4
2017-04-07T00:38:16.773Z,23.35
2017-04-07T00:38:36.098Z,23.31
2017-04-07T00:38:55.419Z,23.35
2017-04-07T00:39:14.156Z,23.37
2017-04-07T00:39:32.948Z,23.29
2017-04-07T00:39:52.228Z,23.33
2017-04-07T00:40:10.994Z,23.35
2017-04-07T00:40:29.761Z,23.29
2017-04-07T00:40:49.029Z,23.22
2017-04-07T00:41:08.307Z,23.22
2017-04-07T00:41:27.105Z,23.26
2017-04-07T00:41:46.418Z,23.2
2017-04-07T00:42:05.697Z,23.22
2017-04-07T00:42:24.986Z,23.22
2017-04-07T00:42:44.262Z,23.22
2017-04-07T00:43:03.063Z,23.18
2017-04-07T00:43:21.830Z,23.15
2017-04-07T00:43:41.104Z,23.12
2017-04-07T00:44:00.372Z,23.14
2017-04-07T00:44:19.150Z,23.12
2017-04-07T00:44:38.448Z,23.05
2017-04-07T00:44:57.787Z,23.14
2017-04-07T00:45:17.078Z,23.11
2017-04-07T00:45:36.353Z,23.02
2017-04-07T00:45:55.614Z,22.99
2017-04-07T00:46:14.378Z,23.12
2017-04-07T00:46:33.786Z,23.09
2017-04-07T00:46:53.109Z,23
2017-04-07T00:47:12.407Z,23.09
2017-04-07T00:47:31.745Z,23.08
2017-04-07T00:47:51.033Z,23.11
2017-04-07T00:48:09.839Z,23.07
2017-04-07T00:48:29.097Z,23.11
2017-04-07T00:48:48.386Z,23.12
2017-04-07T00:49:07.677Z,23.11
2017-04-07T00:49:26.949Z,23.05
2017-04-07T00:49:46.221Z,23.08
2017-04-07T00:50:05.541Z,23.2
2017-04-07T00:50:24.317Z,23.17
2017-04-07T00:50:43.577Z,23.18
2017-04-07T00:51:02.865Z,23.18
2017-04-07T00:51:22.162Z,23.22
2017-04-07T00:51:40.956Z,23.26
2017-04-07T00:52:00.283Z,23.22
2017-04-07T00:52:19.548Z,23.22
2017-04-07T00:52:38.828Z,23.2
2017-04-07T00:52:58.121Z,23.22
2017-04-07T00:53:17.415Z,23.23
2017-04-07T00:53:36.714Z,23.23
2017-04-07T00:53:56.009Z,23.17
2017-04-07T00:54:15.283Z,23.12
2017-04-07T00:54:34.558Z,23.17
2017-04-07T00:54:53.841Z,23.07
2017-04-07T00:55:13.138Z,23.07
2017-04-07T00:55:32.453Z,22.94
2017-04-07T00:55:51.744Z,22.94
2017-04-07T00:56:10.530Z,22.99
2017-04-07T00:56:29.948Z,22.94
2017-04-07T00:56:49.244Z,22.92
2017-04-07T00:57:08.036Z,22.77
2017-04-07T00:57:27.353Z,22.78
2017-04-07T00:57:46.631Z,22.71
2017-04-07T00:58:05.902Z,22.65
2017-04-07T00:58:25.186Z,22.59
2017-04-07T00:58:44.505Z,22.56
2017-04-07T00:59:03.776Z,22.47
2017-04-07T00:59:23.034Z,22.31
2017-04-07T00:59:41.839Z,22.39
2017-04-07T01:00:00.613Z,22.44
2017-04-07T01:00:19.919Z,22.23
2017-04-07T01:00:39.209Z,22.24
2017-04-07T01:00:57.986Z,22.17
2017-04-07T01:01:17.332Z,22.13
2017-04-07T01:01:36.646Z,21.95
2017-04-07T01:01:55.906Z,21.92
2017-04-07T01:02:15.221Z,21.95
2017-04-07T01:02:34.577Z,21.86
2017-04-07T01:02:53.930Z,21.82
2017-04-07T01:03:13.226Z,21.89
2017-04-07T01:03:32.568Z,21.79
2017-04-07T01:03:51.866Z,21.76
2017-04-07T01:04:11.132Z,21.7
2017-04-07T01:04:30.413Z,21.64
2017-04-07T01:04:49.260Z,21.7
2017-04-07T01:05:08.624Z,21.78
2017-04-07T01:05:26.902Z,21.69
2017-04-07T01:05:46.179Z,21.7
2017-04-07T01:06:05.479Z,21.72
2017-04-07T01:06:24.780Z,21.61
2017-04-07T01:06:43.584Z,21.75
2017-04-07T01:07:02.870Z,21.53
2017-04-07T01:07:22.137Z,21.7
2017-04-07T01:07:41.427Z,21.67
2017-04-07T01:08:00.651Z,21.72
2017-04-07T01:08:19.953Z,21.69
2017-04-07T01:08:39.212Z,21.6
2017-04-07T01:08:58.515Z,21.72
2017-04-07T01:09:17.341Z,21.74
2017-04-07T01:09:36.199Z,21.75
2017-04-07T01:09:55.596Z,21.66
2017-04-07T01:10:15.012Z,21.51
2017-04-07T01:10:33.781Z,21.59
2017-04-07T01:10:53.047Z,21.53
2017-04-07T01:11:12.309Z,21.44
2017-04-07T01:11:31.082Z,21.48
2017-04-07T01:11:49.316Z,21.53
2017-04-07T01:12:08.609Z,21.42
2017-04-07T01:12:27.915Z,21.44
2017-04-07T01:12:47.233Z,21.48
2017-04-07T01:13:06.549Z,21.44
2017-04-07T01:13:25.847Z,21.42
2017-04-07T01:13:45.160Z,21.48
2017-04-07T01:14:04.438Z,21.49
2017-04-07T01:14:23.737Z,21.38
2017-04-07T01:14:43.028Z,21.39
2017-04-07T01:15:02.300Z,21.39
2017-04-07T01:15:21.596Z,21.36
2017-04-07T01:15:40.918Z,21.33
2017-04-07T01:16:00.203Z,21.26
2017-04-07T01:16:19.477Z,21.23
2017-04-07T01:16:38.749Z,21.33
2017-04-07T01:16:57.521Z,21.26
2017-04-07T01:17:16.453Z,21.36
2017-04-07T01:17:35.755Z,21.36
2017-04-07T01:17:55.058Z,21.39
2017-04-07T01:18:13.799Z,21.36
2017-04-07T01:18:33.053Z,21.42
2017-04-07T01:18:52.359Z,21.45
2017-04-07T01:19:11.631Z,21.48
2017-04-07T01:19:30.939Z,21.44
2017-04-07T01:19:50.227Z,21.45
2017-04-07T01:20:09.008Z,21.46
2017-04-07T01:20:27.768Z,21.41
2017-04-07T01:20:47.044Z,21.45
2017-04-07T01:21:05.877Z,21.39
2017-04-07T01:21:25.165Z,21.39
2017-04-07T01:21:43.910Z,21.3
2017-04-07T01:22:02.668Z,21.3
2017-04-07T01:22:21.982Z,21.46
2017-04-07T01:22:41.294Z,21.46
2017-04-07T01:23:00.086Z,21.48
2017-04-07T01:23:19.361Z,21.33
2017-04-07T01:23:38.106Z,21.39
2017-04-07T01:23:56.830Z,21.45
2017-04-07T01:24:16.128Z,21.51
2017-04-07T01:24:35.426Z,21.53
2017-04-07T01:24:54.742Z,21.46
2017-04-07T01:25:14.028Z,21.44
2017-04-07T01:25:33.340Z,21.39
2017-04-07T01:25:52.633Z,21.51
2017-04-07T01:26:11.949Z,21.46
2017-04-07T01:26:31.334Z,21.44
2017-04-07T01:26:50.643Z,21.45
2017-04-07T01:27:09.944Z,21.51
2017-04-07T01:27:29.226Z,21.49
2017-04-07T01:27:48.510Z,21.51
2017-04-07T01:28:07.793Z,21.44
2017-04-07T01:28:27.075Z,21.48
2017-04-07T01:28:46.385Z,21.48
2017-04-07T01:29:05.678Z,21.48
2017-04-07T01:29:24.979Z,21.51
2017-04-07T01:29:44.260Z,21.6
2017-04-07T01:30:03.585Z,21.46
2017-04-07T01:30:22.861Z,21.53
2017-04-07T01:30:42.140Z,21.42
2017-04-07T01:31:01.419Z,21.44
2017-04-07T01:31:20.680Z,21.46
2017-04-07T01:31:39.946Z,21.45
2017-04-07T01:31:59.196Z,21.41
2017-04-07T01:32:18.509Z,21.54
2017-04-07T01:32:37.782Z,21.46
2017-04-07T01:32:57.092Z,21.53
2017-04-07T01:33:16.391Z,21.54
2017-04-07T01:33:35.715Z,21.63
2017-04-07T01:33:54.986Z,21.64
2017-04-07T01:34:14.244Z,21.72
2017-04-07T01:34:33.010Z,21.78
2017-04-07T01:34:51.800Z,21.54
2017-04-07T01:35:11.096Z,21.7
2017-04-07T01:35:30.398Z,21.56
2017-04-07T01:35:49.679Z,21.67
2017-04-07T01:36:08.965Z,21.74
2017-04-07T01:36:28.253Z,21.64
2017-04-07T01:36:47.530Z,21.67
2017-04-07T01:37:06.806Z,21.75
2017-04-07T01:37:26.086Z,21.75
2017-04-07T01:37:44.866Z,21.63
2017-04-07T01:38:04.144Z,21.69
2017-04-07T01:38:23.459Z,21.59
2017-04-07T01:38:42.221Z,21.57
2017-04-07T01:39:01.541Z,21.53
2017-04-07T01:39:20.310Z,21.61
2017-04-07T01:39:39.068Z,21.63
2017-04-07T01:39:58.380Z,21.57
2017-04-07T01:40:17.790Z,21.57
2017-04-07T01:40:37.155Z,21.53
2017-04-07T01:40:56.437Z,21.51
2017-04-07T01:41:15.764Z,21.61
2017-04-07T01:41:35.268Z,21.57
2017-04-07T01:41:54.553Z,21.59
2017-04-07T01:42:13.824Z,21.51
2017-04-07T01:42:33.173Z,21.51
2017-04-07T01:42:52.437Z,21.53
2017-04-07T01:43:11.710Z,21.53
2017-04-07T01:43:30.992Z,21.56
2017-04-07T01:43:50.246Z,21.57
2017-04-07T01:44:09.497Z,21.49
2017-04-07T01:44:28.812Z,21.53
2017-04-07T01:44:47.646Z,21.56
2017-04-07T01:45:06.949Z,21.6
2017-04-07T01:45:26.221Z,21.6
2017-04-07T01:45:45.499Z,21.56
2017-04-07T01:46:04.793Z,21.59
2017-04-07T01:46:24.048Z,21.63
2017-04-07T01:46:43.345Z,21.59
2017-04-07T01:47:02.629Z,21.69
2017-04-07T01:47:21.945Z,21.72
2017-04-07T01:47:41.222Z,21.6
2017-04-07T01:48:00.537Z,21.56
2017-04-07T01:48:19.845Z,21.59
2017-04-07T01:48:39.144Z,21.54
2017-04-07T01:48:58.458Z,21.64
2017-04-07T01:49:17.203Z,21.67
2017-04-07T01:49:36.487Z,21.75
2017-04-07T01:49:55.765Z,21.69
2017-04-07T01:50:15.087Z,21.56
2017-04-07T01:50:33.835Z,21.6
2017-04-07T01:50:53.133Z,21.6
2017-04-07T01:51:11.900Z,21.56
2017-04-07T01:51:31.332Z,21.64
2017-04-07T01:51:50.623Z,21.61
2017-04-07T01:52:09.913Z,21.53
2017-04-07T01:52:29.217Z,21.41
2017-04-07T01:52:48.509Z,21.44
2017-04-07T01:53:07.272Z,21.45
2017-04-07T01:53:26.597Z,21.45
2017-04-07T01:53:45.353Z,21.41
2017-04-07T01:54:04.161Z,21.49
2017-04-07T01:54:23.467Z,21.46
2017-04-07T01:54:42.816Z,21.36
2017-04-07T01:55:02.148Z,21.45
2017-04-07T01:55:21.460Z,21.42
2017-04-07T01:55:40.908Z,21.39
2017-04-07T01:56:00.294Z,21.41
2017-04-07T01:56:19.596Z,21.41
2017-04-07T01:56:38.377Z,21.45
2017-04-07T01:56:57.676Z,21.42
2017-04-07T01:57:16.952Z,21.51
2017-04-07T01:57:36.250Z,21.42
2017-04-07T01:57:55.586Z,21.45
2017-04-07T01:58:14.841Z,21.44
2017-04-07T01:58:34.122Z,21.49
2017-04-07T01:58:53.397Z,21.56
2017-04-07T01:59:12.690Z,21.48
2017-04-07T01:59:32.007Z,21.46
2017-04-07T01:59:51.324Z,21.45
2017-04-07T02:00:10.619Z,21.42
2017-04-07T02:00:29.986Z,21.36
2017-04-07T02:00:49.254Z,21.38
2017-04-07T02:01:08.592Z,21.3
2017-04-07T02:01:27.942Z,21.27
2017-04-07T02:01:46.812Z,21.26
2017-04-07T02:02:05.604Z,21.36
2017-04-07T02:02:24.940Z,21.23
2017-04-07T02:02:44.244Z,21.21
2017-04-07T02:03:03.628Z,21.27
2017-04-07T02:03:22.991Z,21.21
2017-04-07T02:03:42.294Z,21.24
2017-04-07T02:04:01.606Z,21.24
2017-04-07T02:04:20.866Z,21.29
2017-04-07T02:04:40.115Z,21.21
2017-04-07T02:05:13.398Z,21.24
2017-04-07T02:05:32.342Z,21.31
2017-04-07T02:05:51.815Z,21.24
2017-04-07T02:06:11.119Z,21.3
2017-04-07T02:06:30.472Z,21.14
2017-04-07T02:06:49.286Z,21.16
2017-04-07T02:07:08.639Z,21.16
2017-04-07T02:07:27.903Z,21.12
2017-04-07T02:07:47.210Z,21.08
2017-04-07T02:08:06.507Z,21.2
2017-04-07T02:08:25.782Z,21.09
2017-04-07T02:08:44.583Z,21.17
2017-04-07T02:09:03.372Z,21.09
2017-04-07T02:09:22.680Z,21.17
2017-04-07T02:09:41.968Z,21.16
2017-04-07T02:10:00.742Z,21.26
2017-04-07T02:10:20.635Z,21.17
2017-04-07T02:10:40.062Z,21.17
2017-04-07T02:10:59.425Z,21.16
2017-04-07T02:11:18.729Z,21.24
2017-04-07T02:11:38.018Z,21.17
2017-04-07T02:11:57.316Z,21.2
2017-04-07T02:12:16.584Z,21.19
2017-04-07T02:12:35.890Z,21.21
2017-04-07T02:12:55.153Z,21.11
2017-04-07T02:13:14.453Z,21.06
2017-04-07T02:13:33.782Z,21.11
2017-04-07T02:13:52.546Z,21.08
2017-04-07T02:14:11.846Z,21.01
2017-04-07T02:14:31.147Z,21.01
2017-04-07T02:14:49.927Z,21.04
2017-04-07T02:15:08.683Z,21.01
2017-04-07T02:15:27.914Z,20.99
2017-04-07T02:15:47.213Z,20.96
2017-04-07T02:16:06.523Z,20.98
2017-04-07T02:16:25.796Z,20.98
2017-04-07T02:16:45.092Z,20.87
2017-04-07T02:17:04.380Z,20.99
2017-04-07T02:17:23.683Z,21.04
2017-04-07T02:17:42.998Z,20.99
2017-04-07T02:18:02.344Z,20.99
2017-04-07T02:18:21.648Z,21.01
2017-04-07T02:18:40.910Z,20.98
2017-04-07T02:19:00.175Z,20.98
2017-04-07T02:19:18.449Z,21.02
2017-04-07T02:19:37.745Z,21.02
2017-04-07T02:19:57.011Z,21.06
2017-04-07T02:20:15.809Z,20.99
2017-04-07T02:20:34.573Z,20.91
2017-04-07T02:20:53.853Z,20.9
2017-04-07T02:21:13.101Z,20.87
2017-04-07T02:21:32.394Z,20.91
2017-04-07T02:21:51.658Z,20.89
2017-04-07T02:22:10.957Z,20.9
2017-04-07T02:22:29.732Z,20.84
2017-04-07T02:22:49.033Z,20.91
2017-04-07T02:23:08.317Z,20.87
2017-04-07T02:23:27.612Z,20.84
2017-04-07T02:23:46.390Z,20.96
2017-04-07T02:24:05.711Z,20.91
2017-04-07T02:24:25.033Z,20.84
2017-04-07T02:24:44.338Z,20.86
2017-04-07T02:25:03.630Z,20.86
2017-04-07T02:25:22.365Z,20.82
2017-04-07T02:25:41.614Z,20.86
2017-04-07T02:26:00.895Z,20.94
2017-04-07T02:26:20.198Z,20.9
2017-04-07T02:26:39.601Z,20.9
2017-04-07T02:26:58.471Z,20.9
2017-04-07T02:27:17.832Z,20.9
2017-04-07T02:27:37.101Z,20.89
2017-04-07T02:27:56.435Z,20.87
2017-04-07T02:28:15.689Z,20.86
2017-04-07T02:28:34.450Z,20.9
2017-04-07T02:28:53.759Z,20.91
2017-04-07T02:29:13.052Z,20.93
2017-04-07T02:29:32.348Z,20.89
2017-04-07T02:29:51.672Z,20.89
2017-04-07T02:30:10.968Z,20.9
2017-04-07T02:30:30.280Z,20.91
2017-04-07T02:30:49.542Z,20.89
2017-04-07T02:31:08.819Z,20.91
2017-04-07T02:31:27.583Z,20.89
2017-04-07T02:31:46.868Z,20.87
2017-04-07T02:32:05.667Z,20.91
2017-04-07T02:32:24.969Z,20.94
2017-04-07T02:32:44.220Z,20.98
2017-04-07T02:33:02.997Z,20.94
2017-04-07T02:33:22.279Z,21.01
2017-04-07T02:33:41.559Z,21.01
2017-04-07T02:34:00.364Z,20.93
2017-04-07T02:34:19.657Z,20.89
2017-04-07T02:34:38.962Z,20.89
2017-04-07T02:34:57.718Z,20.87
2017-04-07T02:35:16.984Z,20.84
2017-04-07T02:35:36.263Z,20.84
2017-04-07T02:35:55.060Z,20.89
2017-04-07T02:36:13.800Z,20.89
2017-04-07T02:36:32.578Z,20.93
2017-04-07T02:36:51.843Z,20.91
2017-04-07T02:37:11.119Z,20.89
2017-04-07T02:37:30.408Z,20.91
2017-04-07T02:37:49.696Z,20.89
2017-04-07T02:38:08.964Z,20.93
2017-04-07T02:38:28.273Z,20.98
2017-04-07T02:38:47.542Z,20.96
2017-04-07T02:39:06.826Z,20.99
2017-04-07T02:39:26.108Z,21.04
2017-04-07T02:39:45.422Z,21.02
2017-04-07T02:40:04.698Z,21.04
2017-04-07T02:40:24.480Z,21.01
2017-04-07T02:40:43.317Z,20.98
2017-04-07T02:41:02.629Z,20.96
2017-04-07T02:41:21.891Z,20.98
2017-04-07T02:41:41.180Z,20.98
2017-04-07T02:42:00.454Z,20.99
2017-04-07T02:42:19.764Z,20.99
2017-04-07T02:42:39.071Z,20.93
2017-04-07T02:42:58.392Z,20.99
2017-04-07T02:43:17.160Z,20.91
2017-04-07T02:43:36.459Z,20.89
2017-04-07T02:43:55.781Z,20.87
2017-04-07T02:44:15.074Z,20.84
2017-04-07T02:44:34.359Z,20.84
2017-04-07T02:44:53.633Z,20.87
2017-04-07T02:45:12.920Z,20.82
2017-04-07T02:45:31.692Z,20.89
2017-04-07T02:45:50.974Z,20.9
2017-04-07T02:46:09.721Z,20.82
2017-04-07T02:46:29.049Z,20.91
2017-04-07T02:46:48.335Z,20.89
2017-04-07T02:47:07.660Z,20.87
2017-04-07T02:47:26.932Z,20.9
2017-04-07T02:47:46.211Z,20.87
2017-04-07T02:48:05.490Z,20.87
2017-04-07T02:48:24.242Z,20.89
2017-04-07T02:48:43.513Z,20.89
2017-04-07T02:49:02.839Z,20.89
2017-04-07T02:49:22.146Z,20.91
2017-04-07T02:49:41.458Z,20.9
2017-04-07T02:50:00.237Z,20.84
2017-04-07T02:50:19.507Z,20.86
2017-04-07T02:50:38.784Z,20.94
2017-04-07T02:50:57.567Z,20.9
2017-04-07T02:51:16.870Z,20.93
2017-04-07T02:51:36.147Z,20.89
2017-04-07T02:51:55.449Z,20.99
2017-04-07T02:52:14.712Z,20.9
2017-04-07T02:52:33.472Z,20.84
2017-04-07T02:52:52.741Z,20.98
2017-04-07T02:53:12.052Z,20.93
2017-04-07T02:53:30.793Z,20.93
2017-04-07T02:53:49.562Z,20.84
2017-04-07T02:54:08.894Z,20.89
2017-04-07T02:54:28.189Z,20.91
2017-04-07T02:54:47.496Z,20.87
2017-04-07T02:55:06.794Z,20.93
2017-04-07T02:55:26.069Z,20.86
2017-04-07T02:55:45.397Z,20.99
2017-04-07T02:56:04.689Z,20.94
2017-04-07T02:56:24.259Z,20.91
2017-04-07T02:56:43.052Z,20.91
2017-04-07T02:57:02.383Z,20.87
2017-04-07T02:57:21.658Z,20.91
2017-04-07T02:57:40.950Z,20.96
2017-04-07T02:58:00.277Z,20.89
2017-04-07T02:58:19.075Z,20.83
2017-04-07T02:58:38.353Z,20.87
2017-04-07T02:58:57.658Z,20.89
2017-04-07T02:59:16.939Z,20.82
2017-04-07T02:59:35.762Z,20.83
2017-04-07T02:59:55.055Z,20.89
2017-04-07T03:00:13.837Z,20.79
2017-04-07T03:00:33.161Z,20.94
2017-04-07T03:00:52.486Z,20.94
2017-04-07T03:01:11.767Z,20.82
2017-04-07T03:01:31.143Z,20.87
2017-04-07T03:01:50.421Z,20.86
2017-04-07T03:02:09.709Z,20.87
2017-04-07T03:02:29.044Z,20.91
2017-04-07T03:02:48.344Z,20.91
2017-04-07T03:03:07.136Z,20.87
2017-04-07T03:03:26.425Z,20.94
2017-04-07T03:03:45.672Z,20.89
2017-04-07T03:04:04.978Z,20.9
2017-04-07T03:04:24.250Z,20.89
2017-04-07T03:04:43.554Z,20.94
2017-04-07T03:05:02.323Z,20.87
2017-04-07T03:05:21.597Z,20.89
2017-04-07T03:05:40.362Z,20.84
2017-04-07T03:05:59.653Z,20.89
2017-04-07T03:06:18.955Z,20.84
2017-04-07T03:06:37.716Z,20.93
2017-04-07T03:06:56.998Z,20.93
2017-04-07T03:07:15.790Z,20.94
2017-04-07T03:07:35.099Z,20.96
2017-04-07T03:07:54.367Z,20.93
2017-04-07T03:08:13.147Z,21.02
2017-04-07T03:08:32.437Z,20.96
2017-04-07T03:08:51.209Z,21.01
2017-04-07T03:09:10.479Z,21.04
2017-04-07T03:09:29.768Z,20.93
2017-04-07T03:09:49.059Z,21.06
2017-04-07T03:10:08.387Z,20.98
2017-04-07T03:10:27.704Z,20.96
2017-04-07T03:10:46.969Z,20.98
2017-04-07T03:11:06.280Z,20.99
2017-04-07T03:11:25.691Z,21.06
2017-04-07T03:11:44.993Z,21.08
2017-04-07T03:12:04.281Z,21.05
2017-04-07T03:12:23.090Z,21.08
2017-04-07T03:12:42.393Z,20.98
2017-04-07T03:13:01.682Z,21.04
2017-04-07T03:13:20.462Z,21.12
2017-04-07T03:13:39.237Z,21.16
2017-04-07T03:13:58.522Z,21.09
2017-04-07T03:14:17.818Z,21.17
2017-04-07T03:14:37.115Z,21.23
2017-04-07T03:14:56.387Z,21.16
2017-04-07T03:15:15.686Z,21.23
2017-04-07T03:15:34.460Z,21.19
2017-04-07T03:15:53.761Z,21.26
2017-04-07T03:16:13.080Z,21.27
2017-04-07T03:16:32.342Z,21.31
2017-04-07T03:16:50.581Z,21.26
2017-04-07T03:17:09.872Z,21.23
2017-04-07T03:17:29.164Z,21.31
2017-04-07T03:17:48.511Z,21.35
2017-04-07T03:18:07.827Z,21.27
2017-04-07T03:18:27.117Z,21.21
2017-04-07T03:18:45.897Z,21.27
2017-04-07T03:19:05.221Z,21.33
2017-04-07T03:19:24.472Z,21.2
2017-04-07T03:19:43.756Z,21.38
2017-04-07T03:20:03.029Z,21.29
2017-04-07T03:20:22.286Z,21.44
2017-04-07T03:20:41.582Z,21.29
2017-04-07T03:21:00.860Z,21.35
2017-04-07T03:21:20.138Z,21.26
2017-04-07T03:21:39.439Z,21.31
2017-04-07T03:21:58.695Z,21.24
2017-04-07T03:22:17.968Z,21.24
2017-04-07T03:22:36.756Z,21.24
2017-04-07T03:22:55.548Z,21.29
2017-04-07T03:23:14.833Z,21.31
2017-04-07T03:23:34.147Z,21.3
2017-04-07T03:23:53.403Z,21.3
2017-04-07T03:24:12.681Z,21.33
2017-04-07T03:24:31.951Z,21.27
2017-04-07T03:24:51.251Z,21.39
2017-04-07T03:25:10.571Z,21.42
2017-04-07T03:25:29.849Z,21.44
2017-04-07T03:25:49.103Z,21.41
2017-04-07T03:26:08.393Z,21.46
2017-04-07T03:26:27.678Z,21.42
2017-04-07T03:26:46.965Z,21.45
2017-04-07T03:27:06.262Z,21.42
2017-04-07T03:27:25.558Z,21.42
2017-04-07T03:27:44.352Z,21.51
2017-04-07T03:28:03.629Z,21.49
2017-04-07T03:28:22.919Z,21.42
2017-04-07T03:28:42.193Z,21.44
2017-04-07T03:29:01.495Z,21.45
2017-04-07T03:29:20.777Z,21.51
2017-04-07T03:29:40.052Z,21.46
2017-04-07T03:29:59.365Z,21.49
2017-04-07T03:30:18.717Z,21.48
2017-04-07T03:30:38.030Z,21.54
2017-04-07T03:30:57.314Z,21.56
2017-04-07T03:31:16.613Z,21.64
2017-04-07T03:31:35.916Z,21.59
2017-04-07T03:31:55.191Z,21.64
2017-04-07T03:32:13.980Z,21.6
2017-04-07T03:32:33.237Z,21.66
2017-04-07T03:32:52.016Z,21.64
2017-04-07T03:33:10.798Z,21.67
2017-04-07T03:33:30.110Z,21.72
2017-04-07T03:33:48.893Z,21.64
2017-04-07T03:34:08.189Z,21.69
2017-04-07T03:34:27.463Z,21.69
2017-04-07T03:34:46.756Z,21.69
2017-04-07T03:35:06.034Z,21.61
2017-04-07T03:35:24.788Z,21.63
2017-04-07T03:35:44.070Z,21.56
2017-04-07T03:36:03.323Z,21.57
2017-04-07T03:36:22.810Z,21.61
2017-04-07T03:36:42.101Z,21.57
2017-04-07T03:37:01.375Z,21.53
2017-04-07T03:37:20.132Z,21.6
2017-04-07T03:37:39.401Z,21.51
2017-04-07T03:37:58.896Z,21.49
2017-04-07T03:38:18.168Z,21.53
2017-04-07T03:38:36.939Z,21.51
2017-04-07T03:38:56.229Z,21.51
2017-04-07T03:39:15.018Z,21.46
2017-04-07T03:39:34.321Z,21.42
2017-04-07T03:39:53.596Z,21.44
2017-04-07T03:40:12.849Z,21.48
2017-04-07T03:40:32.133Z,21.41
2017-04-07T03:40:51.423Z,21.54
2017-04-07T03:41:10.734Z,21.42
2017-04-07T03:41:30.059Z,21.48
2017-04-07T03:41:49.348Z,21.51
2017-04-07T03:42:08.684Z,21.46
2017-04-07T03:42:27.963Z,21.38
2017-04-07T03:42:47.268Z,21.42
2017-04-07T03:43:06.552Z,21.42
2017-04-07T03:43:25.828Z,21.42
2017-04-07T03:43:45.119Z,21.39
2017-04-07T03:44:04.410Z,21.29
2017-04-07T03:44:23.697Z,21.24
2017-04-07T03:44:43.010Z,21.23
2017-04-07T03:45:01.250Z,21.39
2017-04-07T03:45:20.508Z,21.29
2017-04-07T03:45:39.808Z,21.29
2017-04-07T03:45:59.078Z,21.24
2017-04-07T03:46:17.782Z,21.3
2017-04-07T03:46:37.079Z,21.36
2017-04-07T03:46:56.388Z,21.35
2017-04-07T03:47:15.683Z,21.19
2017-04-07T03:47:34.975Z,21.2
2017-04-07T03:47:54.285Z,21.3
2017-04-07T03:48:13.609Z,21.31
2017-04-07T03:48:32.401Z,21.3
2017-04-07T03:48:51.737Z,21.31
2017-04-07T03:49:11.073Z,21.29
2017-04-07T03:49:29.824Z,21.23
2017-04-07T03:49:49.056Z,21.21
2017-04-07T03:50:08.356Z,21.24
2017-04-07T03:50:27.658Z,21.21
2017-04-07T03:50:46.956Z,21.19
2017-04-07T03:51:06.245Z,21.23
2017-04-07T03:51:25.635Z,21.11
2017-04-07T03:51:44.430Z,21.11
2017-04-07T03:52:03.839Z,21.08
2017-04-07T03:52:23.145Z,21.11
2017-04-07T03:52:42.466Z,21.11
2017-04-07T03:53:01.729Z,21.05
2017-04-07T03:53:21.000Z,21.16
2017-04-07T03:53:39.261Z,21.17
2017-04-07T03:53:58.538Z,21.12
2017-04-07T03:54:17.814Z,21.04
2017-04-07T03:54:37.102Z,21.02
2017-04-07T03:54:56.379Z,20.98
2017-04-07T03:55:15.662Z,21.01
2017-04-07T03:55:33.902Z,21.04
2017-04-07T03:55:53.195Z,20.96
2017-04-07T03:56:12.440Z,20.99
2017-04-07T03:56:31.753Z,20.94
2017-04-07T03:56:51.035Z,20.98
2017-04-07T03:57:09.802Z,21.04
2017-04-07T03:57:29.110Z,20.96
2017-04-07T03:57:48.428Z,20.99
2017-04-07T03:58:07.739Z,20.96
2017-04-07T03:58:26.485Z,20.98
2017-04-07T03:58:45.799Z,20.96
2017-04-07T03:59:05.218Z,20.96
2017-04-07T03:59:24.530Z,20.98
2017-04-07T03:59:43.342Z,21.02
2017-04-07T04:00:02.634Z,21.05
2017-04-07T04:00:21.917Z,20.99
2017-04-07T04:00:40.692Z,20.99
2017-04-07T04:00:59.997Z,20.98
2017-04-07T04:01:19.284Z,20.91
2017-04-07T04:01:38.600Z,20.99
2017-04-07T04:01:57.856Z,20.99
2017-04-07T04:02:16.630Z,20.99
2017-04-07T04:02:35.900Z,21.04
2017-04-07T04:02:55.164Z,21.01
2017-04-07T04:03:13.955Z,21.01
2017-04-07T04:03:33.260Z,21.01
2017-04-07T04:03:52.515Z,20.93
2017-04-07T04:04:11.797Z,20.93
2017-04-07T04:04:31.078Z,20.96
2017-04-07T04:04:50.348Z,20.91
2017-04-07T04:05:09.658Z,20.93
2017-04-07T04:05:28.942Z,20.9
2017-04-07T04:05:48.238Z,20.98
2017-04-07T04:06:07.498Z,20.96
2017-04-07T04:06:26.114Z,20.99
2017-04-07T04:06:44.888Z,20.98
2017-04-07T04:07:04.191Z,20.9
2017-04-07T04:07:23.486Z,20.98
2017-04-07T04:07:42.242Z,20.91
2017-04-07T04:08:01.556Z,20.83